createdAt,value
2024-04-15T00:02:03.152Z,0.00
2024-04-15T00:04:39.875Z,0.00
2024-04-15T00:07:08.640Z,0.00
2024-04-15T00:09:39.293Z,0.00
2024-04-15T00:12:19.454Z,0.00
2024-04-15T00:14:58.923Z,0.00
2024-04-15T00:17:36.176Z,0.00
2024-04-15T00:20:20.623Z,0.00
2024-04-15T00:22:50.175Z,0.00
2024-04-15T00:25:25.629Z,0.00
2024-04-15T00:28:02.970Z,0.00
2024-04-15T00:30:34.267Z,0.00
2024-04-15T00:33:01.753Z,0.00
2024-04-15T00:36:02.033Z,0.00
2024-04-15T00:38:32.940Z,0.00
2024-04-15T00:41:06.092Z,0.00
2024-04-15T00:43:33.071Z,0.00
2024-04-15T00:46:03.377Z,0.00
2024-04-15T00:48:30.395Z,0.00
2024-04-15T00:51:03.864Z,0.00
2024-04-15T00:53:34.965Z,0.00
2024-04-15T00:56:07.919Z,0.00
2024-04-15T00:58:35.194Z,0.00
2024-04-15T01:01:06.453Z,0.00
2024-04-15T01:03:34.011Z,0.00
2024-04-15T01:06:06.421Z,0.00
2024-04-15T01:08:36.594Z,0.00
2024-04-15T01:11:09.460Z,0.00
2024-04-15T01:13:37.064Z,0.00
2024-04-15T01:16:07.896Z,0.00
2024-04-15T01:18:35.402Z,0.00
2024-04-15T01:21:05.709Z,0.00
2024-04-15T01:23:40.254Z,0.00
2024-04-15T01:26:13.306Z,0.00
2024-04-15T01:28:40.444Z,0.00
2024-04-15T01:31:11.487Z,0.00
2024-04-15T01:33:41.594Z,0.25
2024-04-15T01:36:15.897Z,0.00
2024-04-15T01:38:43.347Z,0.00
2024-04-15T01:41:17.185Z,0.00
2024-04-15T01:43:44.180Z,0.00
2024-04-15T01:46:14.402Z,0.00
2024-04-15T01:48:41.421Z,0.00
2024-04-15T01:51:11.576Z,0.00
2024-04-15T01:53:38.493Z,0.00
2024-04-15T01:56:09.075Z,0.00
2024-04-15T01:58:39.003Z,0.00
2024-04-15T02:01:09.165Z,0.00
2024-04-15T02:03:36.298Z,0.00
2024-04-15T02:06:08.194Z,0.00
2024-04-15T02:08:35.794Z,0.00
2024-04-15T02:11:06.236Z,0.00
2024-04-15T02:13:33.642Z,0.00
2024-04-15T02:16:08.560Z,0.00
2024-04-15T02:18:35.780Z,0.00
2024-04-15T02:21:08.497Z,0.00
2024-04-15T02:23:38.466Z,0.00
2024-04-15T02:26:08.932Z,0.00
2024-04-15T02:28:37.967Z,0.00
2024-04-15T02:31:11.530Z,0.00
2024-04-15T02:33:38.613Z,0.00
2024-04-15T02:36:09.114Z,0.00
2024-04-15T02:38:37.867Z,0.00
2024-04-15T02:41:08.176Z,0.00
2024-04-15T02:43:35.169Z,0.00
2024-04-15T02:46:05.384Z,0.00
2024-04-15T02:48:35.056Z,0.00
2024-04-15T02:51:05.196Z,0.00
2024-04-15T02:53:33.795Z,0.00
2024-04-15T02:56:03.916Z,0.00
2024-04-15T02:58:34.507Z,0.00
2024-04-15T03:01:04.792Z,0.00
2024-04-15T03:03:34.619Z,0.00
2024-04-15T03:06:05.275Z,0.00
2024-04-15T03:08:32.339Z,0.00
2024-04-15T03:11:11.754Z,0.00
2024-04-15T03:13:39.015Z,0.00
2024-04-15T03:16:16.681Z,0.00
2024-04-15T03:18:53.016Z,0.00
2024-04-15T03:21:22.743Z,0.00
2024-04-15T03:23:50.393Z,0.00
2024-04-15T03:26:20.022Z,0.00
2024-04-15T03:28:47.913Z,0.00
2024-04-15T03:31:17.894Z,0.00
2024-04-15T03:33:46.070Z,0.00
2024-04-15T03:36:22.111Z,0.00
2024-04-15T03:38:53.875Z,0.00
2024-04-15T03:41:23.740Z,0.00
2024-04-15T03:43:55.569Z,0.00
2024-04-15T03:46:23.503Z,0.00
2024-04-15T03:48:53.718Z,0.00
2024-04-15T03:51:23.826Z,0.00
2024-04-15T03:53:57.757Z,0.00
2024-04-15T03:56:25.199Z,0.00
2024-04-15T03:58:55.800Z,0.00
2024-04-15T04:01:22.866Z,0.00
2024-04-15T04:03:53.200Z,0.00
2024-04-15T04:06:22.887Z,0.00
2024-04-15T04:08:53.160Z,0.00
2024-04-15T04:11:25.462Z,0.00
2024-04-15T04:13:56.013Z,0.00
2024-04-15T04:16:25.105Z,0.00
2024-04-15T04:18:55.059Z,0.00
2024-04-15T04:21:24.782Z,0.00
2024-04-15T04:23:55.002Z,0.00
2024-04-15T04:26:23.227Z,0.00
2024-04-15T04:28:53.463Z,0.00
2024-04-15T04:31:20.910Z,0.00
2024-04-15T04:33:50.874Z,0.00
2024-04-15T04:36:21.142Z,0.00
2024-04-15T04:38:55.310Z,0.00
2024-04-15T04:41:22.906Z,0.00
2024-04-15T04:43:53.135Z,0.00
2024-04-15T04:46:20.376Z,0.00
2024-04-15T04:48:51.195Z,0.00
2024-04-15T04:51:18.182Z,0.00
2024-04-15T04:53:48.375Z,0.00
2024-04-15T04:56:21.156Z,0.00
2024-04-15T04:58:52.366Z,0.00
2024-04-15T05:01:19.757Z,0.10
2024-04-15T05:03:59.533Z,0.00
2024-04-15T05:06:28.214Z,0.00
2024-04-15T05:08:57.796Z,0.00
2024-04-15T05:11:28.536Z,0.00
2024-04-15T05:14:01.555Z,0.00
2024-04-15T05:16:35.238Z,0.00
2024-04-15T05:19:04.936Z,0.00
2024-04-15T05:21:34.698Z,0.00
2024-04-15T05:24:04.266Z,0.00
2024-04-15T05:26:35.094Z,0.00
2024-04-15T05:29:04.661Z,0.00
2024-04-15T05:31:31.913Z,0.00
2024-04-15T05:34:02.106Z,0.00
2024-04-15T05:36:29.204Z,0.00
2024-04-15T05:38:58.772Z,0.00
2024-04-15T05:41:26.108Z,0.00
2024-04-15T05:43:58.360Z,0.00
2024-04-15T05:46:25.751Z,0.10
2024-04-15T05:48:55.640Z,0.00
2024-04-15T05:51:23.319Z,0.00
2024-04-15T05:53:53.645Z,0.00
2024-04-15T05:56:21.857Z,0.03
2024-04-15T05:58:55.475Z,0.00
2024-04-15T06:01:26.169Z,0.10
2024-04-15T06:03:56.001Z,0.05
2024-04-15T06:06:24.238Z,0.10
2024-04-15T06:08:54.977Z,0.10
2024-04-15T06:11:23.991Z,0.10
2024-04-15T06:13:54.388Z,0.10
2024-04-15T06:16:21.450Z,0.10
2024-04-15T06:18:58.109Z,0.10
2024-04-15T06:21:25.542Z,0.10
2024-04-15T06:23:58.014Z,0.10
2024-04-15T06:26:25.454Z,0.10
2024-04-15T06:28:55.153Z,0.10
2024-04-15T06:31:24.566Z,0.10
2024-04-15T06:33:57.225Z,0.10
2024-04-15T06:36:26.522Z,0.10
2024-04-15T06:38:58.961Z,0.20
2024-04-15T06:41:28.165Z,0.10
2024-04-15T06:43:58.056Z,0.10
2024-04-15T06:46:26.404Z,0.10
2024-04-15T06:48:59.303Z,0.10
2024-04-15T06:51:26.379Z,0.13
2024-04-15T06:53:56.477Z,0.10
2024-04-15T06:56:25.610Z,0.10
2024-04-15T06:58:55.514Z,0.10
2024-04-15T07:01:22.767Z,0.10
2024-04-15T07:03:52.497Z,0.10
2024-04-15T07:06:25.751Z,0.10
2024-04-15T07:08:56.202Z,0.10
2024-04-15T07:11:26.668Z,0.10
2024-04-15T07:13:56.469Z,0.20
2024-04-15T07:16:23.662Z,0.10
2024-04-15T07:18:53.880Z,0.10
2024-04-15T07:21:27.180Z,0.15
2024-04-15T07:24:00.201Z,0.20
2024-04-15T07:26:27.218Z,0.20
2024-04-15T07:28:59.194Z,0.30
2024-04-15T07:31:26.383Z,0.10
2024-04-15T07:36:40.631Z,0.10
2024-04-15T07:39:12.900Z,0.20
2024-04-15T07:41:40.130Z,0.30
2024-04-15T07:44:10.130Z,0.13
2024-04-15T07:46:37.267Z,0.28
2024-04-15T07:49:09.528Z,0.10
2024-04-15T07:51:39.024Z,0.10
2024-04-15T07:54:11.710Z,0.10
2024-04-15T07:56:41.128Z,0.10
2024-04-15T07:59:11.856Z,0.10
2024-04-15T08:01:39.230Z,0.10
2024-04-15T08:04:09.807Z,0.10
2024-04-15T08:06:36.959Z,0.10
2024-04-15T08:09:08.574Z,0.10
2024-04-15T08:11:39.023Z,0.10
2024-04-15T08:14:10.219Z,0.10
2024-04-15T08:16:39.823Z,0.10
2024-04-15T08:19:11.316Z,0.10
2024-04-15T08:21:38.325Z,0.10
2024-04-15T08:24:09.358Z,0.10
2024-04-15T08:26:38.949Z,0.10
2024-04-15T08:29:09.976Z,0.10
2024-04-15T08:31:37.343Z,0.10
2024-04-15T08:34:07.644Z,0.10
2024-04-15T08:36:39.790Z,0.10
2024-04-15T08:39:10.970Z,0.13
2024-04-15T08:42:00.969Z,0.10
2024-04-15T08:44:41.075Z,0.10
2024-04-15T08:47:34.842Z,0.20
2024-04-15T08:55:50.643Z,0.20
2024-04-15T08:58:21.658Z,0.80
2024-04-15T09:00:59.532Z,0.50
2024-04-15T09:03:27.628Z,0.45
2024-04-15T09:05:58.869Z,0.73
2024-04-15T09:08:26.576Z,0.57
2024-04-15T09:10:58.467Z,0.50
2024-04-15T09:13:30.374Z,0.50
2024-04-15T09:16:00.512Z,0.73
2024-04-15T09:18:29.875Z,0.95
2024-04-15T09:21:09.799Z,0.55
2024-04-15T09:23:39.199Z,0.60
2024-04-15T09:26:09.402Z,0.57
2024-04-15T09:28:42.650Z,0.55
2024-04-15T09:31:15.130Z,0.20
2024-04-15T09:33:43.629Z,0.30
2024-04-15T09:36:17.420Z,0.20
2024-04-15T09:38:46.621Z,0.20
2024-04-15T09:41:17.916Z,0.20
2024-04-15T09:43:49.411Z,0.30
2024-04-15T09:46:22.534Z,0.30
2024-04-15T09:48:51.305Z,0.10
2024-04-15T09:51:27.830Z,0.30
2024-04-15T09:53:55.285Z,0.20
2024-04-15T09:56:29.696Z,0.13
2024-04-15T09:59:03.189Z,0.20
2024-04-15T10:01:36.536Z,0.10
2024-04-15T10:04:15.108Z,0.10
2024-04-15T10:06:53.419Z,0.10
2024-04-15T10:09:20.922Z,0.10
2024-04-15T10:11:53.079Z,0.10
2024-04-15T10:14:23.436Z,0.10
2024-04-15T10:16:53.487Z,0.10
2024-04-15T10:19:25.219Z,0.00
2024-04-15T10:21:55.970Z,0.10
2024-04-15T10:24:24.337Z,0.00
2024-04-15T10:26:56.103Z,0.00
2024-04-15T10:29:30.246Z,0.00
2024-04-15T10:32:05.560Z,0.00
2024-04-15T10:34:32.640Z,0.00
2024-04-15T10:37:02.260Z,0.00
2024-04-15T10:39:29.360Z,0.00
2024-04-15T10:41:59.254Z,0.10
2024-04-15T10:44:32.434Z,0.10
2024-04-15T10:47:03.016Z,0.10
2024-04-15T10:49:30.719Z,0.10
2024-04-15T10:52:01.944Z,0.00
2024-04-15T10:54:29.436Z,0.00
2024-04-15T10:56:59.124Z,0.00
2024-04-15T10:59:26.513Z,0.00
2024-04-15T11:01:58.935Z,0.00
2024-04-15T11:04:28.785Z,0.00
2024-04-15T11:06:58.402Z,0.00
2024-04-15T11:09:25.770Z,0.00
2024-04-15T11:11:56.748Z,0.10
2024-04-15T11:14:25.272Z,0.10
2024-04-15T11:16:55.575Z,0.13
2024-04-15T11:19:25.288Z,0.10
2024-04-15T11:22:05.191Z,0.10
2024-04-15T11:24:35.047Z,0.10
2024-04-15T11:27:15.490Z,0.10
2024-04-15T11:29:52.123Z,0.10
2024-04-15T11:32:30.571Z,0.10
2024-04-15T11:35:04.993Z,0.00
2024-04-15T11:37:35.516Z,0.00
2024-04-15T11:40:04.347Z,0.00
2024-04-15T11:42:35.075Z,0.10
2024-04-15T11:45:06.536Z,0.10
2024-04-15T11:47:37.431Z,0.10
2024-04-15T11:50:08.911Z,0.00
2024-04-15T11:52:42.101Z,0.10
2024-04-15T11:55:16.767Z,0.00
2024-04-15T11:57:46.529Z,0.00
2024-04-15T12:00:14.675Z,0.00
2024-04-15T12:02:48.264Z,0.00
2024-04-15T12:05:18.453Z,0.00
2024-04-15T12:07:48.175Z,0.00
2024-04-15T12:10:17.086Z,0.00
2024-04-15T12:12:46.852Z,0.00
2024-04-15T12:15:14.814Z,0.00
2024-04-15T12:17:46.029Z,0.00
2024-04-15T12:20:18.435Z,0.00
2024-04-15T12:22:48.468Z,0.00
2024-04-15T12:25:19.694Z,0.00
2024-04-15T12:27:49.367Z,0.00
2024-04-15T12:30:19.009Z,0.00
2024-04-15T12:32:46.825Z,0.00
2024-04-15T12:35:16.838Z,0.00
2024-04-15T12:37:44.533Z,0.00
2024-04-15T12:40:18.228Z,0.00
2024-04-15T12:42:46.003Z,0.00
2024-04-15T12:45:17.101Z,0.00
2024-04-15T12:47:45.822Z,0.00
2024-04-15T12:50:15.650Z,0.00
2024-04-15T12:52:43.257Z,0.00
2024-04-15T12:55:16.134Z,0.00
2024-04-15T12:57:46.409Z,0.00
2024-04-15T13:00:17.038Z,0.00
2024-04-15T13:02:44.998Z,0.00
2024-04-15T13:05:14.902Z,0.00
2024-04-15T13:07:41.966Z,0.00
2024-04-15T13:10:13.042Z,0.00
2024-04-15T13:12:40.272Z,0.00
2024-04-15T13:15:13.216Z,0.00
2024-04-15T13:17:40.580Z,0.00
2024-04-15T13:20:12.342Z,0.10
2024-04-15T13:22:39.434Z,0.00
2024-04-15T13:25:10.068Z,0.00
2024-04-15T13:27:40.656Z,0.00
2024-04-15T13:30:14.745Z,0.00
2024-04-15T13:32:42.105Z,0.00
2024-04-15T13:35:12.319Z,0.00
2024-04-15T13:37:40.578Z,0.00
2024-04-15T13:40:14.100Z,0.00
2024-04-15T13:42:41.179Z,0.00
2024-04-15T13:45:15.665Z,0.00
2024-04-15T13:47:43.135Z,0.00
2024-04-15T13:50:13.561Z,0.00
2024-04-15T13:52:41.499Z,0.00
2024-04-15T13:55:12.055Z,0.00
2024-04-15T13:57:39.071Z,0.00
2024-04-15T14:00:13.675Z,0.00
2024-04-15T14:02:45.026Z,0.00
2024-04-15T14:05:16.174Z,0.00
2024-04-15T14:07:45.019Z,0.00
2024-04-15T14:10:17.384Z,0.00
2024-04-15T14:12:44.643Z,0.00
2024-04-15T14:15:14.545Z,0.00
2024-04-15T14:17:44.471Z,0.00
2024-04-15T14:20:15.552Z,0.00
2024-04-15T14:22:42.543Z,0.00
2024-04-15T14:25:15.294Z,0.00
2024-04-15T14:27:42.482Z,0.00
2024-04-15T14:30:13.691Z,0.00
2024-04-15T14:32:44.256Z,0.10
2024-04-15T14:35:17.475Z,0.00
2024-04-15T14:37:46.456Z,0.00
2024-04-15T14:40:23.101Z,0.00
2024-04-15T14:42:54.474Z,0.00
2024-04-15T14:45:24.051Z,0.00
2024-04-15T14:47:54.074Z,0.00
2024-04-15T14:50:23.809Z,0.00
2024-04-15T14:52:51.412Z,0.00
2024-04-15T14:55:21.191Z,0.00
2024-04-15T14:57:53.479Z,0.00
2024-04-15T15:00:27.168Z,0.00
2024-04-15T15:02:57.307Z,0.00
2024-04-15T15:05:26.912Z,0.00
2024-04-15T15:07:54.067Z,0.00
2024-04-15T15:10:24.334Z,0.00
2024-04-15T15:12:52.273Z,0.00
2024-04-15T15:15:22.519Z,0.00
2024-04-15T15:17:52.218Z,0.00
2024-04-15T15:20:26.407Z,0.00
2024-04-15T15:22:54.778Z,0.00
2024-04-15T15:25:24.717Z,0.00
2024-04-15T15:27:53.968Z,0.00
2024-04-15T15:30:24.131Z,0.00
2024-04-15T15:32:51.686Z,0.00
2024-04-15T15:35:21.289Z,0.00
2024-04-15T15:37:51.459Z,0.00
2024-04-15T15:40:21.331Z,0.00
2024-04-15T15:42:51.975Z,0.00
2024-04-15T15:45:23.560Z,0.00
2024-04-15T15:47:50.988Z,0.00
2024-04-15T15:50:25.307Z,0.00
2024-04-15T15:52:55.176Z,0.10
2024-04-15T15:55:25.977Z,0.00
2024-04-15T15:57:53.711Z,0.00
2024-04-15T16:00:23.666Z,0.00
2024-04-15T16:02:51.494Z,0.00
2024-04-15T16:05:21.771Z,0.00
2024-04-15T16:07:49.036Z,0.00
2024-04-15T16:10:21.430Z,0.00
2024-04-15T16:12:48.777Z,0.00
2024-04-15T16:15:18.981Z,0.00
2024-04-15T16:17:47.695Z,0.00
2024-04-15T16:20:17.460Z,0.00
2024-04-15T16:22:45.519Z,0.00
2024-04-15T16:25:15.666Z,0.00
2024-04-15T16:27:46.109Z,0.00
2024-04-15T16:30:15.778Z,0.00
2024-04-15T16:32:43.304Z,0.00
2024-04-15T16:35:15.004Z,0.00
2024-04-15T16:37:42.216Z,0.00
2024-04-15T16:40:13.542Z,0.00
2024-04-15T16:42:43.542Z,0.00
2024-04-15T16:45:43.654Z,0.00
2024-04-15T16:48:10.957Z,0.00
2024-04-15T16:50:41.222Z,0.00
2024-04-15T16:53:08.239Z,0.00
2024-04-15T16:55:38.432Z,0.00
2024-04-15T16:58:07.246Z,0.00
2024-04-15T17:00:36.976Z,0.00
2024-04-15T17:03:07.249Z,0.00
2024-04-15T17:05:37.584Z,0.00
2024-04-15T17:08:05.682Z,0.00
2024-04-15T17:10:37.194Z,0.00
2024-04-15T17:13:04.615Z,0.00
2024-04-15T17:15:36.164Z,0.00
2024-04-15T17:18:03.340Z,0.00
2024-04-15T17:20:36.037Z,0.00
2024-04-15T17:23:04.597Z,0.00
2024-04-15T17:25:34.677Z,0.00
2024-04-15T17:28:03.420Z,0.00
2024-04-15T17:30:33.407Z,0.00
2024-04-15T17:33:00.579Z,0.00
2024-04-15T17:35:31.044Z,0.00
2024-04-15T17:38:01.342Z,0.00
2024-04-15T17:40:31.618Z,0.00
2024-04-15T17:42:59.103Z,0.00
2024-04-15T17:45:29.030Z,0.00
2024-04-15T17:47:56.058Z,0.00
2024-04-15T17:50:27.618Z,0.00
2024-04-15T17:52:54.983Z,0.00
2024-04-15T17:55:27.884Z,0.00
2024-04-15T17:57:58.374Z,0.00
2024-04-15T18:00:31.128Z,0.00
2024-04-15T18:03:00.305Z,0.00
2024-04-15T18:05:29.971Z,0.00
2024-04-15T18:07:59.371Z,0.00
2024-04-15T18:10:31.848Z,0.00
2024-04-15T18:13:00.181Z,0.00
2024-04-15T18:15:30.018Z,0.00
2024-04-15T18:18:00.849Z,0.00
2024-04-15T18:20:30.841Z,0.00
2024-04-15T18:22:59.985Z,0.00
2024-04-15T18:25:32.806Z,0.00
2024-04-15T18:28:00.437Z,0.00
2024-04-15T18:30:30.407Z,0.00
2024-04-15T18:32:58.551Z,0.00
2024-04-15T18:35:28.274Z,0.00
2024-04-15T18:37:55.249Z,0.00
2024-04-15T18:40:27.206Z,0.00
2024-04-15T18:43:00.913Z,0.00
2024-04-15T18:45:30.520Z,0.00
2024-04-15T18:47:57.919Z,0.00
2024-04-15T18:50:31.725Z,0.00
2024-04-15T18:52:59.319Z,0.00
2024-04-15T18:55:31.738Z,0.00
2024-04-15T18:58:02.196Z,0.00
2024-04-15T19:00:32.062Z,0.00
2024-04-15T19:02:59.629Z,0.00
2024-04-15T19:05:29.605Z,0.00
2024-04-15T19:07:57.161Z,0.00
2024-04-15T19:10:26.788Z,0.00
2024-04-15T19:12:54.323Z,0.00
2024-04-15T19:15:26.828Z,0.00
2024-04-15T19:17:54.048Z,0.00
2024-04-15T19:20:23.858Z,0.00
2024-04-15T19:22:51.547Z,0.00
2024-04-15T19:25:21.275Z,0.00
2024-04-15T19:27:48.349Z,0.00
2024-04-15T19:30:18.136Z,0.00
2024-04-15T19:32:47.812Z,0.00
2024-04-15T19:35:18.151Z,0.00
2024-04-15T19:37:45.564Z,0.00
2024-04-15T19:40:17.926Z,0.00
2024-04-15T19:42:49.494Z,0.00
2024-04-15T19:45:20.186Z,0.00
2024-04-15T19:47:51.572Z,0.00
2024-04-15T19:50:21.199Z,0.00
2024-04-15T19:52:48.283Z,0.00
2024-04-15T19:55:18.014Z,0.00
2024-04-15T19:57:45.627Z,0.00
2024-04-15T20:00:16.837Z,0.00
2024-04-15T20:02:44.536Z,0.00
2024-04-15T20:05:17.263Z,0.00
2024-04-15T20:07:46.082Z,0.00
2024-04-15T20:10:18.783Z,0.00
2024-04-15T20:12:49.239Z,0.00
2024-04-15T20:15:18.305Z,0.00
2024-04-15T20:18:07.805Z,0.00
2024-04-15T20:20:44.951Z,0.00
2024-04-15T20:23:15.641Z,0.00
2024-04-15T20:25:43.883Z,0.00
2024-04-15T20:28:15.169Z,0.00
2024-04-15T20:30:42.313Z,0.00
2024-04-15T20:33:11.966Z,0.00
2024-04-15T20:35:41.878Z,0.00
2024-04-15T20:38:11.576Z,0.00
2024-04-15T20:40:41.409Z,0.00
2024-04-15T20:43:12.026Z,0.00
2024-04-15T20:45:39.139Z,0.00
2024-04-15T20:48:11.016Z,0.00
2024-04-15T20:50:38.625Z,0.00
2024-04-15T20:53:11.106Z,0.00
2024-04-15T20:55:38.491Z,0.00
2024-04-15T20:58:08.047Z,0.00
2024-04-15T21:00:35.629Z,0.00
2024-04-15T21:03:05.150Z,0.00
2024-04-15T21:05:33.291Z,0.00
2024-04-15T21:08:03.000Z,0.00
2024-04-15T21:10:33.273Z,0.00
2024-04-15T21:13:05.128Z,0.00
2024-04-15T21:15:32.407Z,0.00
2024-04-15T21:18:02.331Z,0.00
2024-04-15T21:20:31.306Z,0.00
2024-04-15T21:23:00.863Z,0.00
2024-04-15T21:25:28.654Z,0.00
2024-04-15T21:28:01.197Z,0.00
2024-04-15T21:30:28.918Z,0.00
2024-04-15T21:32:58.903Z,0.00
2024-04-15T21:35:26.490Z,0.00
2024-04-15T21:37:56.019Z,0.00
2024-04-15T21:40:23.293Z,0.00
2024-04-15T21:42:52.971Z,0.00
2024-04-15T21:45:23.107Z,0.00
2024-04-15T21:47:53.438Z,0.00
2024-04-15T21:50:21.226Z,0.00
2024-04-15T21:52:51.070Z,0.00
2024-04-15T21:55:18.048Z,0.00
2024-04-15T21:57:47.584Z,0.00
2024-04-15T22:00:14.737Z,0.00
2024-04-15T22:02:46.890Z,0.00
2024-04-15T22:05:14.794Z,0.00
2024-04-15T22:07:47.327Z,0.00
2024-04-15T22:10:14.752Z,0.00
2024-04-15T22:12:44.381Z,0.00
2024-04-15T22:15:11.594Z,0.00
2024-04-15T22:17:41.478Z,0.00
2024-04-15T22:20:11.378Z,0.00
2024-04-15T22:22:40.906Z,0.00
2024-04-15T22:25:08.160Z,0.00
2024-04-15T22:27:38.001Z,0.00
2024-04-15T22:30:06.022Z,0.00
2024-04-15T22:32:36.086Z,0.08
2024-04-15T22:35:06.149Z,0.00
2024-04-15T22:37:38.352Z,0.00
2024-04-15T22:40:07.496Z,0.05
2024-04-15T22:42:37.038Z,0.00
2024-04-15T22:45:06.251Z,0.10
2024-04-15T22:47:36.125Z,0.03
2024-04-15T22:50:03.851Z,0.00
2024-04-15T22:52:33.761Z,0.10
2024-04-15T22:55:04.236Z,0.10
2024-04-15T22:57:33.879Z,0.00
2024-04-15T23:00:01.879Z,0.10
2024-04-15T23:02:33.046Z,0.00
2024-04-15T23:05:00.686Z,0.10
2024-04-15T23:07:30.560Z,0.00
2024-04-15T23:09:58.154Z,0.10
2024-04-15T23:12:30.435Z,0.10
2024-04-15T23:14:57.994Z,0.00
2024-04-15T23:17:27.644Z,0.00
2024-04-15T23:19:55.083Z,0.10
2024-04-15T23:22:24.751Z,0.10
2024-04-15T23:24:52.338Z,0.00
2024-04-15T23:27:21.870Z,0.10
2024-04-15T23:29:52.015Z,0.10
2024-04-15T23:32:23.596Z,0.10
2024-04-15T23:34:51.094Z,0.10
2024-04-15T23:37:20.693Z,0.10
2024-04-15T23:39:48.206Z,0.10
2024-04-15T23:42:17.746Z,0.10
2024-04-15T23:44:45.898Z,0.10
2024-04-15T23:47:37.151Z,0.10
2024-04-15T23:50:23.111Z,0.10
2024-04-15T23:53:11.893Z,0.00
2024-04-15T23:55:57.414Z,0.00
2024-04-15T23:58:29.702Z,0.00
